Time;durP1;ratioP1;P1;durP2;ratioP2;P2;SDS_P1;SDS_P2;PMS_P1;PMS_P2;Temp;Humidity;BMP_temperature;BMP_pressure;BME280_temperature;BME280_humidity;BME280_pressure;Samples;Min_cycle;Max_cycle;Signal;HPM_P1;HPM_P2
2021/10/01 00:02:14;;;;;;;4.38;1.50;;;;;;;11.25;100.00;101822.59;5259820;28;20543;-68
2021/10/01 00:04:45;;;;;;;8.43;1.58;;;;;;;11.23;100.00;101813.97;5261669;28;20112;-68
2021/10/01 00:07:17;;;;;;;7.68;1.63;;;;;;;11.22;100.00;101817.56;5261375;28;20103;-68
2021/10/01 00:09:49;;;;;;;5.93;1.70;;;;;;;11.19;100.00;101815.97;5252776;28;20032;-67
2021/10/01 00:12:20;;;;;;;6.95;1.42;;;;;;;11.16;100.00;101808.31;5262105;28;20457;-68
2021/10/01 00:14:52;;;;;;;5.07;1.40;;;;;;;11.17;100.00;101817.03;5261988;28;20025;-68
2021/10/01 00:17:23;;;;;;;3.38;1.30;;;;;;;11.15;100.00;101806.66;5258786;28;20078;-68
2021/10/01 00:19:54;;;;;;;5.30;1.30;;;;;;;11.17;100.00;101809.16;5257644;28;20529;-68
2021/10/01 00:22:26;;;;;;;5.45;1.50;;;;;;;11.18;100.00;101803.81;5261422;28;20033;-67
2021/10/01 00:24:58;;;;;;;6.45;1.30;;;;;;;11.18;100.00;101805.63;5261382;28;20453;-68
2021/10/01 00:27:29;;;;;;;2.85;1.30;;;;;;;11.14;100.00;101791.03;5261564;28;20044;-67
2021/10/01 00:30:01;;;;;;;4.70;1.42;;;;;;;11.15;100.00;101803.22;5252528;28;20032;-68
2021/10/01 00:32:32;;;;;;;6.47;1.40;;;;;;;11.15;100.00;101787.47;5261807;28;20021;-67
2021/10/01 00:35:04;;;;;;;4.15;1.75;;;;;;;11.17;100.00;101785.56;5261782;28;20075;-68
2021/10/01 00:37:36;;;;;;;6.10;1.73;;;;;;;11.16;100.00;101783.88;5253586;28;20040;-68
2021/10/01 00:40:08;;;;;;;4.28;1.33;;;;;;;11.14;100.00;101784.00;5255062;28;20041;-68
2021/10/01 00:42:39;;;;;;;4.72;1.40;;;;;;;11.13;100.00;101784.94;5239993;28;20128;-68
2021/10/01 00:45:11;;;;;;;7.30;1.55;;;;;;;11.16;100.00;101781.28;5240479;28;20540;-67
2021/10/01 00:47:42;;;;;;;6.72;1.30;;;;;;;11.18;100.00;101779.38;5258673;28;20025;-67
2021/10/01 00:50:13;;;;;;;4.63;0.98;;;;;;;11.17;100.00;101772.44;5260883;28;20017;-67
2021/10/01 00:52:48;;;;;;;3.20;1.27;;;;;;;11.22;100.00;101774.75;5261005;28;20025;-68
2021/10/01 00:55:19;;;;;;;5.75;1.55;;;;;;;11.20;100.00;101769.59;5257859;28;20478;-68
2021/10/01 00:57:50;;;;;;;7.53;1.27;;;;;;;11.21;100.00;101763.41;5260863;28;20040;-68
2021/10/01 01:00:28;;;;;;;2.90;1.15;;;;;;;11.22;100.00;101765.09;5260928;28;20108;-68
2021/10/01 01:03:04;;;;;;;6.68;1.05;;;;;;;11.26;100.00;101756.06;5260811;28;20029;-68
2021/10/01 01:06:12;;;;;;;4.65;1.33;;;;;;;11.32;100.00;101767.88;5258572;28;20029;-68
2021/10/01 01:09:16;;;;;;;4.43;1.38;;;;;;;11.36;100.00;101764.91;5258745;28;20045;-68
2021/10/01 01:12:02;;;;;;;4.10;1.40;;;;;;;11.30;100.00;101751.41;5257732;28;20040;-68
2021/10/01 01:14:43;;;;;;;3.50;1.30;;;;;;;11.26;100.00;101747.34;5269774;28;20083;-68
2021/10/01 01:17:20;;;;;;;4.30;1.10;;;;;;;11.19;100.00;101755.66;5260765;28;20028;-68
2021/10/01 01:20:15;;;;;;;4.13;1.38;;;;;;;11.19;100.00;101757.44;5260027;28;20028;-68
2021/10/01 01:23:20;;;;;;;4.70;1.15;;;;;;;11.20;100.00;101754.69;5258863;28;20160;-68
2021/10/01 01:26:11;;;;;;;5.03;1.20;;;;;;;11.11;100.00;101755.38;5240479;28;20049;-67
2021/10/01 01:29:01;;;;;;;3.88;1.30;;;;;;;11.09;100.00;101749.41;5248903;28;20036;-68
2021/10/01 01:31:50;;;;;;;5.05;1.42;;;;;;;11.10;100.00;101745.84;5260501;28;20017;-67
2021/10/01 01:34:24;;;;;;;6.88;1.75;;;;;;;11.02;100.00;101735.06;5252692;28;20033;-68
2021/10/01 01:37:01;;;;;;;4.50;1.17;;;;;;;11.02;100.00;101732.44;5260047;28;20024;-67
2021/10/01 01:39:35;;;;;;;4.43;1.17;;;;;;;10.98;100.00;101717.88;5259663;28;20056;-67
2021/10/01 01:42:08;;;;;;;4.68;1.20;;;;;;;10.97;100.00;101716.19;5254910;28;20029;-68
2021/10/01 01:44:39;;;;;;;3.90;1.30;;;;;;;11.01;100.00;101716.81;5259769;28;20585;-68
2021/10/01 01:47:12;;;;;;;5.15;1.20;;;;;;;11.01;100.00;101722.06;5259739;28;20021;-68
2021/10/01 01:49:45;;;;;;;6.53;1.30;;;;;;;11.04;100.00;101719.22;5251264;28;20033;-68
2021/10/01 01:52:17;;;;;;;2.92;1.10;;;;;;;11.02;100.00;101714.06;5259869;28;20017;-68
2021/10/01 01:54:50;;;;;;;3.97;1.05;;;;;;;11.05;100.00;101715.66;5259422;28;20471;-68
2021/10/01 01:57:23;;;;;;;4.95;1.27;;;;;;;11.06;100.00;101710.31;5254619;28;20478;-68
2021/10/01 01:59:54;;;;;;;;;;;;;;;11.31;100.00;101706.69;5259048;28;20390;-68
2021/10/01 02:02:27;;;;;;;4.60;1.30;;;;;;;11.09;100.00;101711.84;5265669;28;20006;-67
2021/10/01 02:05:00;;;;;;;7.78;1.20;;;;;;;11.08;100.00;101703.16;5264973;28;20029;-67
2021/10/01 02:07:32;;;;;;;6.60;1.63;;;;;;;11.08;100.00;101704.94;5259141;28;20033;-67
2021/10/01 02:10:05;;;;;;;5.00;1.08;;;;;;;11.10;100.00;101695.16;5258837;28;20536;-68
2021/10/01 02:12:36;;;;;;;4.95;1.20;;;;;;;11.08;100.00;101691.81;5252873;28;20041;-68
2021/10/01 02:15:10;;;;;;;4.93;1.23;;;;;;;11.07;100.00;101698.84;5259117;28;20016;-68
2021/10/01 02:17:44;;;;;;;4.55;1.38;;;;;;;11.07;100.00;101698.03;5259323;28;20441;-68
2021/10/01 02:20:17;;;;;;;3.53;1.10;;;;;;;11.04;100.00;101696.47;5259539;28;20390;-67
2021/10/01 02:22:48;;;;;;;4.43;1.50;;;;;;;11.04;100.00;101693.84;5258261;28;20025;-67
2021/10/01 02:28:20;;;;;;;4.68;1.30;;;;;;;11.00;100.00;101683.69;5259096;28;20056;-68
2021/10/01 02:30:52;;;;;;;5.53;1.38;;;;;;;10.91;100.00;101686.03;5257107;28;20108;-68
2021/10/01 02:33:33;;;;;;;4.00;1.33;;;;;;;10.95;100.00;101678.78;5260804;28;20119;-67
2021/10/01 02:36:05;;;;;;;6.22;1.60;;;;;;;10.87;100.00;101668.00;5256169;28;20071;-68
2021/10/01 02:38:37;;;;;;;5.18;1.23;;;;;;;10.85;100.00;101669.91;5245424;28;20053;-68
2021/10/01 02:41:08;;;;;;;4.50;1.38;;;;;;;10.82;100.00;101665.72;5250822;28;20021;-67
2021/10/01 02:43:39;;;;;;;3.92;1.20;;;;;;;10.82;100.00;101662.25;5266063;28;20055;-67
2021/10/01 02:46:11;;;;;;;3.35;1.10;;;;;;;10.81;100.00;101655.34;5266061;28;20086;-68
2021/10/01 02:48:43;;;;;;;4.50;1.50;;;;;;;10.79;100.00;101658.06;5265542;28;20045;-67
2021/10/01 02:51:19;;;;;;;4.85;1.38;;;;;;;10.81;100.00;101650.94;5265726;28;20104;-68
2021/10/01 02:54:13;;;;;;;3.70;1.45;;;;;;;10.86;100.00;101651.44;5257441;28;20029;-67
2021/10/01 02:57:07;;;;;;;;;;;;;;;11.02;100.00;101651.16;5266769;28;20029;-68
2021/10/01 02:59:41;;;;;;;3.75;1.08;;;;;;;10.76;100.00;101642.59;5266051;28;19979;-68
2021/10/01 03:02:13;;;;;;;3.13;1.15;;;;;;;10.73;100.00;101642.81;5262223;28;20044;-68
2021/10/01 03:04:48;;;;;;;4.75;1.05;;;;;;;10.74;100.00;101638.41;5266034;28;20166;-67
2021/10/01 03:07:21;;;;;;;5.97;1.40;;;;;;;10.77;100.00;101643.44;5265243;28;20111;-68
2021/10/01 03:09:54;;;;;;;;;;;;;;;10.99;100.00;101645.31;5262370;28;20032;-68
2021/10/01 03:12:25;;;;;;;5.25;1.52;;;;;;;10.78;100.00;101638.06;5266254;28;20262;-68
2021/10/01 03:14:57;;;;;;;4.28;1.25;;;;;;;10.79;100.00;101641.50;5264628;28;20056;-67
2021/10/01 03:17:30;;;;;;;3.85;1.27;;;;;;;10.81;100.00;101632.59;5265649;28;20037;-68
2021/10/01 03:20:02;;;;;;;6.13;1.42;;;;;;;10.82;100.00;101634.25;5258817;28;20151;-68
2021/10/01 03:22:37;;;;;;;4.78;1.77;;;;;;;10.84;100.00;101628.94;5266382;28;20040;-67
2021/10/01 03:25:11;;;;;;;5.40;1.50;;;;;;;10.87;100.00;101611.19;5265334;28;20029;-67
2021/10/01 03:27:42;;;;;;;7.30;1.38;;;;;;;10.87;100.00;101611.19;5259993;28;20065;-68
2021/10/01 03:30:14;;;;;;;5.35;1.20;;;;;;;10.89;100.00;101608.44;5265361;28;20063;-68
2021/10/01 03:32:46;;;;;;;4.32;1.38;;;;;;;10.91;100.00;101611.78;5265802;28;20482;-68
2021/10/01 03:35:17;;;;;;;3.65;1.27;;;;;;;10.92;100.00;101609.06;5265685;28;20024;-67
2021/10/01 03:37:49;;;;;;;4.32;1.17;;;;;;;10.94;100.00;101601.06;5260221;28;20047;-67
2021/10/01 03:40:20;;;;;;;7.07;1.40;;;;;;;10.96;100.00;101602.63;5265398;28;20072;-68
2021/10/01 03:42:51;;;;;;;5.50;1.55;;;;;;;10.99;100.00;101598.13;5263499;28;20033;-68
2021/10/01 03:45:23;;;;;;;7.35;1.30;;;;;;;10.98;100.00;101592.00;5257936;28;20049;-67
2021/10/01 03:47:55;;;;;;;4.15;0.93;;;;;;;10.99;100.00;101591.09;5262376;28;20025;-68
2021/10/01 03:50:26;;;;;;;5.78;1.33;;;;;;;10.98;100.00;101586.78;5262051;28;20037;-68
2021/10/01 03:52:57;;;;;;;4.32;1.48;;;;;;;10.96;100.00;101588.69;5260290;28;20066;-68
2021/10/01 03:55:29;;;;;;;5.93;1.30;;;;;;;10.89;100.00;101572.56;5257760;28;20259;-68
2021/10/01 03:58:01;;;;;;;2.97;1.30;;;;;;;10.87;100.00;101571.00;5261942;28;20524;-67
2021/10/01 04:00:32;;;;;;;5.50;1.58;;;;;;;10.86;100.00;101561.47;5260047;28;20124;-68
2021/10/01 04:03:04;;;;;;;3.30;1.00;;;;;;;10.80;100.00;101549.69;5259750;28;20036;-67
2021/10/01 04:05:35;;;;;;;3.65;1.20;;;;;;;10.78;100.00;101550.72;5268492;28;20017;-68
2021/10/01 04:08:11;;;;;;;9.10;1.40;;;;;;;10.75;100.00;101550.94;5261580;28;20126;-68
2021/10/01 04:10:43;;;;;;;5.55;1.65;;;;;;;10.70;100.00;101540.81;5258338;28;20037;-67
2021/10/01 04:13:14;;;;;;;4.90;1.08;;;;;;;10.68;100.00;101538.31;5253492;28;20052;-67
2021/10/01 04:15:45;;;;;;;5.40;1.35;;;;;;;10.67;100.00;101534.00;5261051;28;20025;-67
2021/10/01 04:18:17;;;;;;;3.70;1.15;;;;;;;10.65;100.00;101524.63;5260640;28;20025;-67
2021/10/01 04:20:48;;;;;;;5.07;1.35;;;;;;;10.68;100.00;101526.97;5261976;28;20024;-67
2021/10/01 04:23:20;;;;;;;4.22;1.48;;;;;;;10.62;100.00;101520.44;5255559;28;20379;-67
2021/10/01 04:25:51;;;;;;;5.57;1.30;;;;;;;10.63;100.00;101523.88;5260334;28;20067;-68
2021/10/01 04:28:22;;;;;;;6.47;1.35;;;;;;;10.67;100.00;101522.69;5261169;28;20536;-67
2021/10/01 04:30:54;;;;;;;4.03;1.13;;;;;;;10.66;100.00;101524.47;5254449;28;20470;-67
2021/10/01 04:33:27;;;;;;;7.15;1.45;;;;;;;10.66;100.00;101524.47;5261019;28;20107;-68
2021/10/01 04:35:59;;;;;;;4.10;0.98;;;;;;;10.67;100.00;101522.69;5260709;28;20024;-68
2021/10/01 04:38:31;;;;;;;4.05;1.27;;;;;;;10.71;100.00;101524.97;5253281;28;20369;-68
2021/10/01 04:41:02;;;;;;;6.50;1.38;;;;;;;10.74;100.00;101523.09;5260756;28;20031;-67
2021/10/01 04:43:33;;;;;;;4.80;1.00;;;;;;;10.77;100.00;101526.31;5260743;28;20060;-68
2021/10/01 04:46:05;;;;;;;4.88;1.10;;;;;;;10.80;100.00;101517.41;5260814;28;20543;-68
2021/10/01 04:48:36;;;;;;;4.15;1.30;;;;;;;10.80;100.00;101518.22;5258527;28;20485;-68
2021/10/01 04:51:07;;;;;;;5.53;1.52;;;;;;;10.79;100.00;101513.91;5259449;28;20371;-68
2021/10/01 04:53:39;;;;;;;3.97;1.15;;;;;;;10.80;100.00;101518.22;5260782;28;20052;-68
2021/10/01 04:56:10;;;;;;;4.63;1.40;;;;;;;10.78;100.00;101504.38;5260561;28;20057;-67
2021/10/01 04:58:41;;;;;;;5.15;1.15;;;;;;;10.79;100.00;101507.84;5260707;28;20104;-68
2021/10/01 05:01:13;;;;;;;5.43;1.30;;;;;;;10.81;100.00;101503.34;5255649;28;20036;-68
2021/10/01 05:03:44;;;;;;;4.35;1.15;;;;;;;10.81;100.00;101503.34;5260652;28;20052;-68
2021/10/01 05:06:15;;;;;;;4.53;1.50;;;;;;;10.83;100.00;101502.25;5261103;28;20029;-68
2021/10/01 05:08:47;;;;;;;2.50;1.10;;;;;;;10.84;100.00;101492.63;5260275;28;20025;-67
2021/10/01 05:11:18;;;;;;;5.68;1.30;;;;;;;10.84;100.00;101497.88;5253403;28;20078;-68
2021/10/01 05:13:49;;;;;;;4.05;1.30;;;;;;;10.83;100.00;101491.75;5260112;28;20027;-68
2021/10/01 05:16:21;;;;;;;3.95;1.05;;;;;;;10.85;100.00;101495.13;5260249;28;20075;-68
2021/10/01 05:18:52;;;;;;;5.13;1.13;;;;;;;10.87;100.00;101495.84;5260504;28;20027;-68
2021/10/01 05:21:23;;;;;;;3.95;1.10;;;;;;;10.88;100.00;101486.19;5257467;28;20029;-68
2021/10/01 05:23:55;;;;;;;3.40;1.10;;;;;;;10.89;100.00;101480.81;5256193;28;20490;-68
2021/10/01 05:26:26;;;;;;;7.47;1.08;;;;;;;10.92;100.00;101485.00;5259478;28;20028;-67
2021/10/01 05:28:57;;;;;;;5.20;1.33;;;;;;;10.91;100.00;101492.03;5256805;28;20486;-68
2021/10/01 05:31:29;;;;;;;6.25;0.98;;;;;;;10.93;100.00;101497.16;5259689;28;20032;-67
2021/10/01 05:34:01;;;;;;;5.50;1.45;;;;;;;10.91;100.00;101486.78;5259692;28;20039;-68
2021/10/01 05:36:33;;;;;;;3.97;1.00;;;;;;;10.90;100.00;101490.34;5259720;28;20028;-67
2021/10/01 05:39:04;;;;;;;6.18;1.48;;;;;;;10.93;100.00;101490.13;5257886;28;20041;-68
2021/10/01 05:41:36;;;;;;;4.43;1.13;;;;;;;10.91;100.00;101499.03;5252461;28;20032;-67
2021/10/01 05:44:08;;;;;;;4.88;0.88;;;;;;;10.92;100.00;101498.13;5258860;28;20040;-67
2021/10/01 05:46:43;;;;;;;6.10;1.25;;;;;;;10.90;100.00;101481.66;5259301;28;20071;-67
2021/10/01 05:49:27;;;;;;;6.43;1.65;;;;;;;10.91;100.00;101494.66;5260021;28;20441;-68
2021/10/01 05:52:11;;;;;;;3.80;1.38;;;;;;;10.93;100.00;101491.91;5258334;28;20039;-68
2021/10/01 05:54:44;;;;;;;6.57;1.52;;;;;;;10.93;100.00;101486.66;5259687;28;20451;-68
2021/10/01 05:57:16;;;;;;;6.35;1.45;;;;;;;10.94;100.00;101498.81;5255886;28;20537;-68
2021/10/01 05:59:47;;;;;;;4.75;0.90;;;;;;;10.96;100.00;101494.31;5256499;28;20390;-68
2021/10/01 06:02:21;;;;;;;9.05;1.42;;;;;;;10.98;100.00;101500.25;5252229;28;20021;-68
2021/10/01 06:04:52;;;;;;;4.68;1.23;;;;;;;10.99;100.00;101493.25;5248262;28;20108;-69
2021/10/01 06:07:24;;;;;;;6.32;1.20;;;;;;;10.99;100.00;101501.94;5253103;28;20104;-68
2021/10/01 06:09:56;;;;;;;4.55;1.38;;;;;;;11.04;100.00;101498.97;5258905;28;20028;-68
2021/10/01 06:12:27;;;;;;;6.05;1.20;;;;;;;11.07;100.00;101503.97;5259390;28;20560;-68
2021/10/01 06:14:58;;;;;;;5.57;1.33;;;;;;;11.08;100.00;101495.16;5258289;28;20537;-68
2021/10/01 06:17:30;;;;;;;4.53;1.42;;;;;;;11.11;100.00;101493.13;5256886;28;20064;-68
2021/10/01 06:20:03;;;;;;;5.93;1.55;;;;;;;11.13;100.00;101501.69;5271362;28;20028;-68
2021/10/01 06:22:35;;;;;;;5.63;1.58;;;;;;;11.11;100.00;101490.50;5266517;28;20032;-69
2021/10/01 06:25:07;;;;;;;4.20;1.00;;;;;;;11.14;100.00;101498.16;5253203;28;21173;-68
2021/10/01 06:27:39;;;;;;;3.45;1.35;;;;;;;11.16;100.00;101501.47;5258547;28;20029;-68
2021/10/01 06:30:10;;;;;;;5.32;1.23;;;;;;;11.17;100.00;101499.69;5258353;28;20025;-69
2021/10/01 06:32:42;;;;;;;3.60;1.10;;;;;;;11.18;100.00;101496.13;5256276;28;20221;-68
2021/10/01 06:35:13;;;;;;;5.22;1.00;;;;;;;11.22;100.00;101504.59;5258751;28;20033;-68
2021/10/01 06:37:45;;;;;;;7.50;1.60;;;;;;;11.23;100.00;101499.22;5259028;28;20447;-68
2021/10/01 06:40:16;;;;;;;3.83;1.00;;;;;;;11.24;100.00;101498.25;5257132;28;20044;-69
2021/10/01 06:42:49;;;;;;;5.22;1.42;;;;;;;11.28;100.00;101509.34;5258566;28;20064;-68
2021/10/01 06:45:30;;;;;;;3.78;1.20;;;;;;;11.28;100.00;101501.47;5255665;28;20470;-68
2021/10/01 08:18:38;;;;;;;6.25;1.58;;;;;;;13.76;100.00;101466.06;5255233;28;20398;-68
2021/10/01 08:21:09;;;;;;;5.35;1.33;;;;;;;13.83;100.00;101472.44;5247752;28;20560;-68
2021/10/01 08:23:42;;;;;;;8.15;1.42;;;;;;;13.93;100.00;101472.44;5250954;28;20140;-68
2021/10/01 08:26:13;;;;;;;5.80;1.13;;;;;;;14.02;100.00;101460.28;5249924;28;20033;-69
2021/10/01 08:28:44;;;;;;;5.53;1.50;;;;;;;14.10;100.00;101466.50;5249067;28;20039;-68
2021/10/01 08:31:16;;;;;;;5.10;1.42;;;;;;;14.12;100.00;101451.38;5250824;28;20021;-68
2021/10/01 08:33:47;;;;;;;4.22;1.13;;;;;;;14.19;100.00;101456.13;5256703;28;20033;-68
2021/10/01 08:36:19;;;;;;;4.55;1.23;;;;;;;14.23;100.00;101458.31;5250408;28;20087;-68
2021/10/01 08:38:50;;;;;;;4.82;1.10;;;;;;;14.33;100.00;101455.69;5249366;28;20144;-68
2021/10/01 08:41:22;;;;;;;5.00;1.40;;;;;;;14.44;100.00;101454.72;5249798;28;20342;-68
2021/10/01 08:43:53;;;;;;;5.18;1.13;;;;;;;14.57;100.00;101445.56;5245222;28;20718;-68
2021/10/01 08:46:25;;;;;;;6.40;1.00;;;;;;;14.57;100.00;101450.84;5242039;28;22000;-69
2021/10/01 08:48:59;;;;;;;5.00;1.25;;;;;;;14.54;100.00;101453.75;5257734;28;20020;-68
2021/10/01 08:51:32;;;;;;;4.93;1.50;;;;;;;14.40;100.00;101450.72;5260639;28;20147;-68
2021/10/01 08:54:04;;;;;;;5.53;1.57;;;;;;;14.24;100.00;101449.44;5255049;28;20089;-68
2021/10/01 08:56:35;;;;;;;4.82;1.38;;;;;;;14.12;100.00;101437.38;5240466;28;20086;-67
2021/10/01 08:59:06;;;;;;;5.13;1.15;;;;;;;14.12;100.00;101435.56;5252764;28;20405;-67
2021/10/01 09:01:38;;;;;;;3.28;1.23;;;;;;;14.18;100.00;101434.19;5243233;28;20068;-68
2021/10/01 09:04:12;;;;;;;5.03;1.63;;;;;;;14.30;100.00;101434.88;5252981;28;20474;-67
2021/10/01 09:06:46;;;;;;;5.45;1.40;;;;;;;14.35;100.00;101441.38;5254868;28;20056;-68
2021/10/01 09:09:17;;;;;;;2.90;1.15;;;;;;;14.48;100.00;101438.47;5250550;28;20021;-68
2021/10/01 09:11:48;;;;;;;10.73;1.10;;;;;;;14.62;100.00;101431.94;5254754;28;20039;-68
2021/10/01 09:14:23;;;;;;;7.78;1.60;;;;;;;14.89;100.00;101436.47;5254769;28;20359;-68
2021/10/01 09:16:54;;;;;;;4.40;1.23;;;;;;;14.92;100.00;101437.97;5252732;28;20024;-68
2021/10/01 09:19:38;;;;;;;3.80;1.15;;;;;;;15.02;100.00;101429.06;5259357;28;20577;-67
2021/10/01 09:22:09;;;;;;;;;;;;;;;15.25;100.00;101436.59;5259443;28;20055;-68
2021/10/01 09:24:43;;;;;;;5.32;1.20;;;;;;;15.09;100.00;101429.31;5259569;28;20390;-67
2021/10/01 09:27:14;;;;;;;4.13;1.42;;;;;;;15.17;100.00;101425.97;5256951;28;20438;-68
2021/10/01 09:29:46;;;;;;;6.53;1.85;;;;;;;15.19;100.00;101410.78;5267039;28;20112;-67
2021/10/01 09:32:17;;;;;;;4.82;1.02;;;;;;;15.23;100.00;101417.47;5245676;28;20558;-67
2021/10/01 09:34:48;;;;;;;5.38;1.40;;;;;;;15.28;100.00;101415.22;5257997;28;20040;-68
2021/10/01 09:37:30;;;;;;;3.67;1.30;;;;;;;15.35;100.00;101418.09;5258706;28;20021;-67
2021/10/01 09:40:02;;;;;;;5.40;1.27;;;;;;;15.39;100.00;101400.97;5260092;28;20056;-69
2021/10/01 09:42:43;;;;;;;2.85;1.17;;;;;;;15.48;100.00;101408.00;5257416;28;20105;-68
2021/10/01 09:45:16;;;;;;;5.57;1.30;;;;;;;15.45;100.00;101398.56;5259535;28;20028;-68
2021/10/01 09:47:50;;;;;;;5.60;1.42;;;;;;;15.57;100.00;101402.69;5260362;28;20386;-68
2021/10/01 09:50:27;;;;;;;6.35;1.38;;;;;;;15.63;100.00;101398.59;5252384;28;20071;-68
2021/10/01 09:53:05;;;;;;;3.92;1.08;;;;;;;15.70;100.00;101388.28;5259206;28;20089;-68
2021/10/01 09:55:39;;;;;;;5.07;1.30;;;;;;;15.74;100.00;101387.84;5259594;28;20117;-68
2021/10/01 09:58:11;;;;;;;;;;;;;;;15.99;100.00;101382.78;5260587;28;20017;-68
2021/10/01 10:00:48;;;;;;;4.85;1.15;;;;;;;15.77;100.00;101381.44;5251128;28;19958;-68
2021/10/01 10:03:26;;;;;;;5.57;1.27;;;;;;;15.76;100.00;101393.81;5255114;28;20041;-68
2021/10/01 10:06:00;;;;;;;6.53;1.60;;;;;;;15.65;100.00;101383.47;5259603;28;20021;-68
2021/10/01 10:08:33;;;;;;;3.95;1.15;;;;;;;15.57;100.00;101388.66;5254958;28;20486;-68
2021/10/01 10:11:06;;;;;;;7.82;1.60;;;;;;;15.52;100.00;101382.97;5251571;28;20099;-68
2021/10/01 10:13:49;;;;;;;5.05;1.10;;;;;;;15.63;100.00;101389.84;5259526;28;20433;-68
2021/10/01 10:16:28;;;;;;;5.78;1.20;;;;;;;15.62;100.00;101388.19;5254619;28;20047;-68
2021/10/01 10:19:03;;;;;;;5.97;1.55;;;;;;;15.66;100.00;101386.94;5257590;28;20044;-68
2021/10/01 10:21:35;;;;;;;5.22;1.15;;;;;;;15.65;100.00;101374.69;5246219;28;20522;-69
2021/10/01 10:24:06;;;;;;;6.90;1.30;;;;;;;15.74;100.00;101379.09;5266784;28;20488;-69
2021/10/01 10:26:38;;;;;;;4.85;1.30;;;;;;;15.80;100.00;101370.56;5261543;28;20029;-69
2021/10/01 10:29:11;;;;;;;7.20;1.27;;;;;;;15.93;100.00;101370.19;5254549;28;20073;-69
2021/10/01 10:31:46;;;;;;;4.20;1.50;;;;;;;16.12;100.00;101370.00;5240330;28;20087;-68
2021/10/01 10:34:27;;;;;;;5.85;1.20;;;;;;;16.13;100.00;101371.66;5257456;28;20442;-69
2021/10/01 10:36:59;;;;;;;5.53;1.30;;;;;;;16.27;100.00;101359.69;5267919;28;20025;-69
2021/10/01 10:39:35;;;;;;;4.88;1.25;;;;;;;16.42;100.00;101360.78;5252849;28;20076;-68
2021/10/01 10:42:20;;;;;;;4.70;1.75;;;;;;;16.56;100.00;101356.75;5251495;28;20033;-69
2021/10/01 10:45:03;;;;;;;4.25;1.40;;;;;;;16.68;100.00;101366.06;5262420;28;20029;-70
2021/10/01 10:47:43;;;;;;;6.18;1.60;;;;;;;16.75;100.00;101356.56;5264141;28;20068;-69
2021/10/01 10:50:30;;;;;;;8.38;1.58;;;;;;;16.80;100.00;101365.84;5244208;28;20025;-68
2021/10/01 10:53:08;;;;;;;4.40;1.40;;;;;;;16.86;100.00;101355.47;5261340;28;20496;-69
2021/10/01 10:55:50;;;;;;;4.75;1.58;;;;;;;16.92;100.00;101346.88;5273139;28;20028;-69
2021/10/01 10:58:21;;;;;;;6.10;1.98;;;;;;;16.97;100.00;101343.72;5273412;28;20397;-70
2021/10/01 11:01:23;;;;;;;5.90;1.65;;;;;;;17.09;100.00;101339.81;5254122;28;20085;-70
2021/10/01 11:04:18;;;;;;;5.75;1.27;;;;;;;17.09;100.00;101337.19;5272500;28;20017;-70
2021/10/01 11:06:50;;;;;;;9.60;1.50;;;;;;;17.06;100.00;101342.78;5263925;28;20032;-69
2021/10/01 11:09:27;;;;;;;3.58;1.10;;;;;;;17.15;100.00;101338.34;5257648;28;20036;-72
2021/10/01 11:12:00;;;;;;;7.15;1.58;;;;;;;17.07;100.00;101327.72;5259531;28;20246;-70
2021/10/01 11:14:33;;;;;;;8.18;1.20;;;;;;;17.05;100.00;101330.56;5270088;28;20546;-69
2021/10/01 11:17:05;;;;;;;5.97;1.27;;;;;;;17.10;100.00;101328.25;5266425;28;20025;-69
2021/10/01 11:19:37;;;;;;;5.30;1.70;;;;;;;17.06;100.00;101315.50;5259319;28;20087;-69
2021/10/01 11:22:29;;;;;;;3.40;1.05;;;;;;;17.15;100.00;101315.34;5245530;28;20029;-69
2021/10/01 11:25:04;;;;;;;3.50;1.27;;;;;;;17.15;100.00;101317.16;5262880;28;20027;-67
2021/10/01 11:27:52;;;;;;;4.55;1.40;;;;;;;17.23;100.00;101312.69;5270936;28;20029;-68
2021/10/01 11:30:26;;;;;;;4.00;1.27;;;;;;;17.24;100.00;101322.31;5247573;28;20033;-68
2021/10/01 11:33:12;;;;;;;5.95;1.42;;;;;;;17.34;100.00;101311.56;5262087;28;20024;-68
2021/10/01 11:35:48;;;;;;;5.57;1.60;;;;;;;17.38;100.00;101320.03;5266703;28;20115;-68
2021/10/01 11:38:21;;;;;;;7.90;1.40;;;;;;;17.49;100.00;101322.34;5264409;28;20751;-69
2021/10/01 11:41:03;;;;;;;;;;;;;;;17.73;100.00;101319.75;5248697;28;20032;-68
2021/10/01 11:43:52;;;;;;;7.50;1.38;;;;;;;17.65;100.00;101321.53;5263438;28;20004;-68
2021/10/01 11:46:30;;;;;;;4.68;1.63;;;;;;;17.69;100.00;101320.22;5264610;28;20036;-68
2021/10/01 11:49:04;;;;;;;7.15;1.40;;;;;;;17.65;100.00;101319.75;5252493;28;20047;-68
2021/10/01 11:51:35;;;;;;;3.70;1.20;;;;;;;17.61;100.00;101318.38;5244225;28;20490;-68
2021/10/01 11:54:09;;;;;;;4.47;1.10;;;;;;;17.58;100.00;101308.16;5264933;28;20040;-67
2021/10/01 11:56:54;;;;;;;5.43;1.50;;;;;;;17.61;100.00;101309.63;5274621;28;20104;-67
2021/10/01 11:59:45;;;;;;;4.18;1.30;;;;;;;17.46;100.00;101306.78;5264899;28;20519;-67
2021/10/01 12:02:26;;;;;;;5.70;1.30;;;;;;;17.51;100.00;101293.91;5255947;28;20032;-67
2021/10/01 12:04:58;;;;;;;3.72;1.30;;;;;;;17.47;100.00;101295.22;5274644;28;20041;-67
2021/10/01 12:07:30;;;;;;;6.82;1.60;;;;;;;17.58;100.00;101300.19;5272192;28;20035;-67
2021/10/01 12:10:07;;;;;;;8.50;1.38;;;;;;;17.59;100.00;101299.19;5270436;28;20028;-67
2021/10/01 12:13:10;;;;;;;4.40;1.38;;;;;;;17.82;100.00;101291.44;5271354;28;20040;-67
2021/10/01 12:15:49;;;;;;;4.33;1.40;;;;;;;17.73;100.00;101295.88;5238721;28;20486;-68
2021/10/01 12:18:44;;;;;;;7.53;1.40;;;;;;;17.77;100.00;101287.63;5266415;28;20354;-67
2021/10/01 12:21:18;;;;;;;5.50;1.23;;;;;;;17.69;100.00;101283.13;5254032;28;20497;-67
2021/10/01 12:23:56;;;;;;;5.70;1.30;;;;;;;17.71;100.00;101284.63;5248033;28;20029;-67
2021/10/01 12:26:36;;;;;;;7.35;1.65;;;;;;;17.75;100.00;101287.78;5239994;28;20052;-67
2021/10/01 12:29:10;;;;;;;6.35;1.70;;;;;;;17.63;100.00;101283.78;5259093;28;20025;-67
2021/10/01 12:31:47;;;;;;;6.10;1.38;;;;;;;17.66;100.00;101286.94;5264954;28;20066;-67
2021/10/01 12:34:24;;;;;;;5.03;1.50;;;;;;;17.63;100.00;101274.03;5257741;28;20042;-68
2021/10/01 12:37:08;;;;;;;5.13;1.23;;;;;;;17.65;100.00;101285.28;5245227;28;20028;-69
2021/10/01 12:39:42;;;;;;;5.47;1.52;;;;;;;17.58;100.00;101279.00;5261106;28;20053;-67
2021/10/01 12:42:19;;;;;;;5.00;1.73;;;;;;;17.57;100.00;101279.16;5267735;28;20510;-69
2021/10/01 12:44:58;;;;;;;4.43;1.50;;;;;;;17.61;100.00;101285.78;5238370;28;20051;-67
2021/10/01 12:47:34;;;;;;;6.25;1.52;;;;;;;17.55;100.00;101276.69;5262386;28;20518;-67
2021/10/01 12:50:18;;;;;;;6.95;1.50;;;;;;;17.59;100.00;101271.88;5264425;28;20017;-67
2021/10/01 12:52:59;;;;;;;6.68;1.30;;;;;;;17.65;100.00;101273.84;5271087;28;20506;-67
2021/10/01 12:55:33;;;;;;;3.72;1.30;;;;;;;17.64;100.00;101272.19;5244643;28;20033;-67
2021/10/01 12:58:04;;;;;;;3.42;1.10;;;;;;;17.71;100.00;101273.19;5264468;28;20020;-67
2021/10/01 13:00:38;;;;;;;4.15;1.38;;;;;;;17.80;100.00;101269.56;5269836;28;20031;-68
2021/10/01 13:03:10;;;;;;;6.90;1.42;;;;;;;17.71;100.00;101267.88;5253985;28;20464;-67
2021/10/01 13:05:45;;;;;;;4.63;1.27;;;;;;;17.70;100.00;101267.06;5265603;28;20552;-67
2021/10/01 13:08:20;;;;;;;2.85;1.08;;;;;;;17.73;100.00;101264.09;5268905;28;20040;-67
2021/10/01 13:10:54;;;;;;;3.92;1.30;;;;;;;17.69;100.00;101265.41;5262032;28;20137;-67
2021/10/01 13:13:28;;;;;;;4.90;1.08;;;;;;;17.72;100.00;101270.38;5256087;28;20039;-67
2021/10/01 13:16:00;;;;;;;4.35;1.33;;;;;;;17.72;100.00;101264.25;5259833;28;20025;-67
2021/10/01 13:18:35;;;;;;;5.35;1.40;;;;;;;17.67;100.00;101269.22;5257463;28;20075;-67
2021/10/01 13:21:19;;;;;;;3.35;1.20;;;;;;;17.72;100.00;101262.41;5248839;28;20021;-67
2021/10/01 13:23:57;;;;;;;5.15;1.20;;;;;;;17.70;100.00;101261.78;5263389;28;20024;-67
2021/10/01 13:26:39;;;;;;;5.32;1.33;;;;;;;17.73;100.00;101261.44;5270382;28;20033;-67
2021/10/01 13:29:12;;;;;;;4.55;1.23;;;;;;;17.81;100.00;101260.63;5248532;28;20694;-67